sensor_id;sensor_type;location;lat;lon;timestamp;P1;durP1;ratioP1;P2;durP2;ratioP2
34072;SDS011;20346;52.702;16.886;2024-03-23T00:53:59;52.60;;;30.90;;
34072;SDS011;20346;52.702;16.886;2024-03-23T00:56:24;44.00;;;27.40;;
34072;SDS011;20346;52.702;16.886;2024-03-23T00:58:49;49.20;;;29.40;;
34072;SDS011;20346;52.702;16.886;2024-03-23T01:01:15;47.20;;;29.00;;
34072;SDS011;20346;52.702;16.886;2024-03-23T01:03:40;42.10;;;28.00;;
34072;SDS011;20346;52.702;16.886;2024-03-23T01:06:06;40.70;;;27.60;;
34072;SDS011;20346;52.702;16.886;2024-03-23T01:08:31;40.00;;;24.40;;
34072;SDS011;20346;52.702;16.886;2024-03-23T01:10:57;37.90;;;25.20;;
34072;SDS011;20346;52.702;16.886;2024-03-23T01:13:23;34.20;;;24.60;;
34072;SDS011;20346;52.702;16.886;2024-03-23T01:15:49;37.30;;;26.60;;
34072;SDS011;20346;52.702;16.886;2024-03-23T01:18:18;41.30;;;25.40;;
34072;SDS011;20346;52.702;16.886;2024-03-23T01:20:46;36.60;;;25.90;;
34072;SDS011;20346;52.702;16.886;2024-03-23T01:23:12;36.70;;;26.30;;
34072;SDS011;20346;52.702;16.886;2024-03-23T01:25:38;36.30;;;24.80;;
34072;SDS011;20346;52.702;16.886;2024-03-23T01:28:04;38.90;;;24.80;;
34072;SDS011;20346;52.702;16.886;2024-03-23T01:30:34;36.80;;;25.10;;
34072;SDS011;20346;52.702;16.886;2024-03-23T01:33:00;39.80;;;26.90;;
34072;SDS011;20346;52.702;16.886;2024-03-23T01:35:28;38.20;;;25.90;;
34072;SDS011;20346;52.702;16.886;2024-03-23T01:40:20;38.90;;;25.70;;
34072;SDS011;20346;52.702;16.886;2024-03-23T01:42:58;34.40;;;23.60;;
34072;SDS011;20346;52.702;16.886;2024-03-23T01:45:28;35.50;;;25.70;;
34072;SDS011;20346;52.702;16.886;2024-03-23T01:47:56;31.00;;;22.90;;
34072;SDS011;20346;52.702;16.886;2024-03-23T01:50:22;29.00;;;21.60;;
34072;SDS011;20346;52.702;16.886;2024-03-23T01:52:50;33.90;;;23.30;;
34072;SDS011;20346;52.702;16.886;2024-03-23T01:55:16;32.40;;;22.50;;
34072;SDS011;20346;52.702;16.886;2024-03-23T01:57:42;31.60;;;21.20;;
34072;SDS011;20346;52.702;16.886;2024-03-23T02:00:08;33.50;;;22.80;;
34072;SDS011;20346;52.702;16.886;2024-03-23T02:02:46;33.80;;;22.00;;
34072;SDS011;20346;52.702;16.886;2024-03-23T02:05:12;33.50;;;23.00;;
34072;SDS011;20346;52.702;16.886;2024-03-23T02:07:41;26.70;;;19.70;;
34072;SDS011;20346;52.702;16.886;2024-03-23T02:10:08;19.10;;;12.80;;
34072;SDS011;20346;52.702;16.886;2024-03-23T02:12:40;18.60;;;11.10;;
34072;SDS011;20346;52.702;16.886;2024-03-23T02:15:06;15.40;;;9.70;;
34072;SDS011;20346;52.702;16.886;2024-03-23T02:17:33;15.80;;;10.00;;
34072;SDS011;20346;52.702;16.886;2024-03-23T02:19:59;12.50;;;8.70;;
34072;SDS011;20346;52.702;16.886;2024-03-23T02:22:25;16.60;;;10.10;;
34072;SDS011;20346;52.702;16.886;2024-03-23T02:25:00;12.00;;;9.10;;
34072;SDS011;20346;52.702;16.886;2024-03-23T02:27:25;14.50;;;9.90;;
34072;SDS011;20346;52.702;16.886;2024-03-23T02:29:51;15.10;;;10.10;;
34072;SDS011;20346;52.702;16.886;2024-03-23T02:32:16;15.10;;;7.40;;
34072;SDS011;20346;52.702;16.886;2024-03-23T02:34:41;12.10;;;4.90;;
34072;SDS011;20346;52.702;16.886;2024-03-23T02:37:10;11.60;;;5.20;;
34072;SDS011;20346;52.702;16.886;2024-03-23T02:39:36;16.90;;;4.40;;
34072;SDS011;20346;52.702;16.886;2024-03-23T02:42:02;20.50;;;4.80;;
34072;SDS011;20346;52.702;16.886;2024-03-23T02:44:27;19.50;;;5.20;;
34072;SDS011;20346;52.702;16.886;2024-03-23T02:46:53;22.60;;;4.60;;
34072;SDS011;20346;52.702;16.886;2024-03-23T02:49:18;22.10;;;4.80;;
34072;SDS011;20346;52.702;16.886;2024-03-23T02:51:43;22.90;;;5.80;;
34072;SDS011;20346;52.702;16.886;2024-03-23T02:54:10;18.00;;;4.60;;
34072;SDS011;20346;52.702;16.886;2024-03-23T02:56:36;15.90;;;4.70;;
34072;SDS011;20346;52.702;16.886;2024-03-23T02:59:01;21.40;;;4.80;;
34072;SDS011;20346;52.702;16.886;2024-03-23T03:01:26;27.20;;;6.80;;
34072;SDS011;20346;52.702;16.886;2024-03-23T03:03:51;18.60;;;4.50;;
34072;SDS011;20346;52.702;16.886;2024-03-23T03:06:26;25.20;;;5.00;;
34072;SDS011;20346;52.702;16.886;2024-03-23T03:08:52;19.40;;;5.00;;
34072;SDS011;20346;52.702;16.886;2024-03-23T03:11:17;22.90;;;5.60;;
34072;SDS011;20346;52.702;16.886;2024-03-23T03:13:43;18.00;;;4.60;;
34072;SDS011;20346;52.702;16.886;2024-03-23T03:16:09;17.30;;;4.60;;
34072;SDS011;20346;52.702;16.886;2024-03-23T03:18:36;17.00;;;5.10;;
34072;SDS011;20346;52.702;16.886;2024-03-23T03:21:03;13.60;;;4.50;;
34072;SDS011;20346;52.702;16.886;2024-03-23T03:23:31;16.60;;;4.40;;
34072;SDS011;20346;52.702;16.886;2024-03-23T03:25:57;23.40;;;5.70;;
34072;SDS011;20346;52.702;16.886;2024-03-23T03:28:23;23.10;;;4.90;;
34072;SDS011;20346;52.702;16.886;2024-03-23T03:30:49;27.20;;;5.00;;
34072;SDS011;20346;52.702;16.886;2024-03-23T03:33:14;20.20;;;5.40;;
34072;SDS011;20346;52.702;16.886;2024-03-23T03:35:39;19.70;;;4.50;;
34072;SDS011;20346;52.702;16.886;2024-03-23T03:38:05;25.10;;;4.70;;
34072;SDS011;20346;52.702;16.886;2024-03-23T03:40:30;16.90;;;4.00;;
34072;SDS011;20346;52.702;16.886;2024-03-23T03:42:55;17.30;;;4.10;;
34072;SDS011;20346;52.702;16.886;2024-03-23T03:45:21;22.70;;;4.90;;
34072;SDS011;20346;52.702;16.886;2024-03-23T03:47:46;19.10;;;4.40;;
34072;SDS011;20346;52.702;16.886;2024-03-23T03:50:11;17.70;;;4.00;;
34072;SDS011;20346;52.702;16.886;2024-03-23T03:52:37;17.30;;;4.30;;
34072;SDS011;20346;52.702;16.886;2024-03-23T03:55:02;16.80;;;4.10;;
34072;SDS011;20346;52.702;16.886;2024-03-23T03:57:28;16.90;;;3.90;;
34072;SDS011;20346;52.702;16.886;2024-03-23T03:59:54;17.10;;;4.80;;
34072;SDS011;20346;52.702;16.886;2024-03-23T04:02:19;17.60;;;7.10;;
34072;SDS011;20346;52.702;16.886;2024-03-23T04:04:44;21.20;;;6.50;;
34072;SDS011;20346;52.702;16.886;2024-03-23T04:07:10;21.00;;;6.00;;
34072;SDS011;20346;52.702;16.886;2024-03-23T04:09:35;21.90;;;5.40;;
34072;SDS011;20346;52.702;16.886;2024-03-23T04:12:00;13.70;;;5.40;;
34072;SDS011;20346;52.702;16.886;2024-03-23T04:14:26;14.70;;;4.60;;
34072;SDS011;20346;52.702;16.886;2024-03-23T04:16:51;15.70;;;4.70;;
34072;SDS011;20346;52.702;16.886;2024-03-23T04:19:16;19.40;;;4.80;;
34072;SDS011;20346;52.702;16.886;2024-03-23T04:21:42;19.10;;;4.50;;
34072;SDS011;20346;52.702;16.886;2024-03-23T04:24:07;25.00;;;4.80;;
34072;SDS011;20346;52.702;16.886;2024-03-23T04:26:42;20.30;;;4.80;;
34072;SDS011;20346;52.702;16.886;2024-03-23T04:29:09;19.60;;;4.40;;
34072;SDS011;20346;52.702;16.886;2024-03-23T04:31:34;18.90;;;4.10;;
34072;SDS011;20346;52.702;16.886;2024-03-23T04:34:00;20.50;;;3.80;;
34072;SDS011;20346;52.702;16.886;2024-03-23T04:36:26;20.10;;;4.30;;
34072;SDS011;20346;52.702;16.886;2024-03-23T04:38:51;17.90;;;4.10;;
34072;SDS011;20346;52.702;16.886;2024-03-23T04:41:17;24.80;;;4.40;;
34072;SDS011;20346;52.702;16.886;2024-03-23T04:43:43;20.60;;;4.30;;
34072;SDS011;20346;52.702;16.886;2024-03-23T04:46:08;26.70;;;4.50;;
34072;SDS011;20346;52.702;16.886;2024-03-23T04:48:33;19.30;;;4.10;;
34072;SDS011;20346;52.702;16.886;2024-03-23T04:50:59;23.80;;;4.90;;
34072;SDS011;20346;52.702;16.886;2024-03-23T04:53:27;13.80;;;4.20;;
34072;SDS011;20346;52.702;16.886;2024-03-23T04:55:58;24.60;;;4.90;;
34072;SDS011;20346;52.702;16.886;2024-03-23T04:58:27;24.60;;;4.90;;
34072;SDS011;20346;52.702;16.886;2024-03-23T05:00:55;19.80;;;4.60;;
34072;SDS011;20346;52.702;16.886;2024-03-23T05:03:21;22.70;;;4.70;;
34072;SDS011;20346;52.702;16.886;2024-03-23T05:05:50;26.50;;;5.00;;
34072;SDS011;20346;52.702;16.886;2024-03-23T05:08:15;22.90;;;4.60;;
34072;SDS011;20346;52.702;16.886;2024-03-23T05:10:42;17.10;;;4.80;;
34072;SDS011;20346;52.702;16.886;2024-03-23T05:13:07;34.80;;;6.00;;
34072;SDS011;20346;52.702;16.886;2024-03-23T05:18:01;26.00;;;4.90;;
34072;SDS011;20346;52.702;16.886;2024-03-23T05:20:26;27.20;;;4.80;;
34072;SDS011;20346;52.702;16.886;2024-03-23T05:22:52;26.10;;;5.70;;
34072;SDS011;20346;52.702;16.886;2024-03-23T05:25:17;27.50;;;5.20;;
34072;SDS011;20346;52.702;16.886;2024-03-23T05:27:42;25.60;;;5.20;;
34072;SDS011;20346;52.702;16.886;2024-03-23T05:30:08;36.00;;;6.50;;
34072;SDS011;20346;52.702;16.886;2024-03-23T05:32:34;26.80;;;5.30;;
34072;SDS011;20346;52.702;16.886;2024-03-23T05:35:00;26.20;;;5.10;;
34072;SDS011;20346;52.702;16.886;2024-03-23T05:37:26;26.20;;;5.40;;
34072;SDS011;20346;52.702;16.886;2024-03-23T05:39:51;18.20;;;5.30;;
34072;SDS011;20346;52.702;16.886;2024-03-23T05:42:17;24.10;;;6.30;;
34072;SDS011;20346;52.702;16.886;2024-03-23T05:44:45;26.90;;;5.30;;
34072;SDS011;20346;52.702;16.886;2024-03-23T05:47:11;21.50;;;5.30;;
34072;SDS011;20346;52.702;16.886;2024-03-23T05:49:41;30.60;;;5.80;;
34072;SDS011;20346;52.702;16.886;2024-03-23T05:52:10;25.20;;;5.80;;
34072;SDS011;20346;52.702;16.886;2024-03-23T05:54:35;30.10;;;6.30;;
34072;SDS011;20346;52.702;16.886;2024-03-23T05:57:02;31.40;;;5.80;;
34072;SDS011;20346;52.702;16.886;2024-03-23T05:59:28;29.50;;;6.10;;
34072;SDS011;20346;52.702;16.886;2024-03-23T06:01:54;33.10;;;5.80;;
34072;SDS011;20346;52.702;16.886;2024-03-23T06:04:20;33.30;;;6.20;;
34072;SDS011;20346;52.702;16.886;2024-03-23T06:06:46;32.90;;;5.70;;
34072;SDS011;20346;52.702;16.886;2024-03-23T06:09:12;37.50;;;5.80;;
34072;SDS011;20346;52.702;16.886;2024-03-23T06:11:38;36.00;;;6.30;;
34072;SDS011;20346;52.702;16.886;2024-03-23T06:14:03;35.10;;;7.20;;
34072;SDS011;20346;52.702;16.886;2024-03-23T06:16:29;29.70;;;6.30;;
34072;SDS011;20346;52.702;16.886;2024-03-23T06:18:55;31.60;;;7.00;;
34072;SDS011;20346;52.702;16.886;2024-03-23T06:21:21;35.80;;;7.70;;
34072;SDS011;20346;52.702;16.886;2024-03-23T06:23:51;28.00;;;6.10;;
34072;SDS011;20346;52.702;16.886;2024-03-23T06:26:20;40.10;;;10.60;;
34072;SDS011;20346;52.702;16.886;2024-03-23T06:28:47;38.00;;;13.70;;
34072;SDS011;20346;52.702;16.886;2024-03-23T06:31:12;34.60;;;10.50;;
34072;SDS011;20346;52.702;16.886;2024-03-23T06:33:38;38.00;;;8.80;;
34072;SDS011;20346;52.702;16.886;2024-03-23T06:36:06;35.50;;;7.10;;
34072;SDS011;20346;52.702;16.886;2024-03-23T06:38:34;35.00;;;8.90;;
34072;SDS011;20346;52.702;16.886;2024-03-23T06:41:02;28.40;;;12.10;;
34072;SDS011;20346;52.702;16.886;2024-03-23T06:43:28;39.00;;;17.00;;
34072;SDS011;20346;52.702;16.886;2024-03-23T06:45:53;46.10;;;17.80;;
34072;SDS011;20346;52.702;16.886;2024-03-23T06:48:19;34.90;;;11.10;;
34072;SDS011;20346;52.702;16.886;2024-03-23T06:50:46;43.70;;;13.50;;
34072;SDS011;20346;52.702;16.886;2024-03-23T06:53:12;43.70;;;14.10;;
34072;SDS011;20346;52.702;16.886;2024-03-23T06:55:38;35.70;;;7.80;;
34072;SDS011;20346;52.702;16.886;2024-03-23T06:58:03;29.80;;;7.60;;
34072;SDS011;20346;52.702;16.886;2024-03-23T07:00:29;29.10;;;7.30;;
34072;SDS011;20346;52.702;16.886;2024-03-23T07:02:55;33.00;;;8.30;;
34072;SDS011;20346;52.702;16.886;2024-03-23T07:05:20;32.30;;;6.70;;
34072;SDS011;20346;52.702;16.886;2024-03-23T07:07:45;34.40;;;6.70;;
34072;SDS011;20346;52.702;16.886;2024-03-23T07:10:11;27.50;;;6.00;;
34072;SDS011;20346;52.702;16.886;2024-03-23T07:12:37;25.30;;;7.30;;
34072;SDS011;20346;52.702;16.886;2024-03-23T07:15:02;29.20;;;7.70;;
34072;SDS011;20346;52.702;16.886;2024-03-23T07:17:28;28.60;;;9.00;;
34072;SDS011;20346;52.702;16.886;2024-03-23T07:19:53;34.20;;;9.80;;
34072;SDS011;20346;52.702;16.886;2024-03-23T07:22:19;36.80;;;8.80;;
34072;SDS011;20346;52.702;16.886;2024-03-23T07:24:44;33.30;;;9.10;;
34072;SDS011;20346;52.702;16.886;2024-03-23T07:27:09;22.60;;;8.30;;
34072;SDS011;20346;52.702;16.886;2024-03-23T07:29:35;32.40;;;8.50;;
34072;SDS011;20346;52.702;16.886;2024-03-23T07:32:01;28.00;;;8.20;;
34072;SDS011;20346;52.702;16.886;2024-03-23T07:34:27;30.40;;;8.60;;
34072;SDS011;20346;52.702;16.886;2024-03-23T07:36:53;23.00;;;7.30;;
34072;SDS011;20346;52.702;16.886;2024-03-23T07:39:18;29.90;;;7.70;;
34072;SDS011;20346;52.702;16.886;2024-03-23T07:41:46;21.30;;;7.20;;
34072;SDS011;20346;52.702;16.886;2024-03-23T07:44:12;25.90;;;7.20;;
34072;SDS011;20346;52.702;16.886;2024-03-23T07:46:37;20.50;;;6.90;;
34072;SDS011;20346;52.702;16.886;2024-03-23T07:49:04;26.80;;;9.70;;
34072;SDS011;20346;52.702;16.886;2024-03-23T07:51:29;29.30;;;11.70;;
34072;SDS011;20346;52.702;16.886;2024-03-23T07:53:54;29.60;;;14.80;;
34072;SDS011;20346;52.702;16.886;2024-03-23T07:56:20;27.90;;;10.50;;
34072;SDS011;20346;52.702;16.886;2024-03-23T07:58:46;19.70;;;7.60;;
34072;SDS011;20346;52.702;16.886;2024-03-23T08:01:13;23.10;;;8.40;;
34072;SDS011;20346;52.702;16.886;2024-03-23T08:03:43;23.20;;;7.60;;
34072;SDS011;20346;52.702;16.886;2024-03-23T08:06:13;16.80;;;6.20;;
34072;SDS011;20346;52.702;16.886;2024-03-23T08:08:41;19.80;;;7.40;;
34072;SDS011;20346;52.702;16.886;2024-03-23T08:11:08;19.10;;;6.60;;
34072;SDS011;20346;52.702;16.886;2024-03-23T08:13:34;21.30;;;7.30;;
34072;SDS011;20346;52.702;16.886;2024-03-23T08:16:00;24.60;;;6.30;;
34072;SDS011;20346;52.702;16.886;2024-03-23T08:20:59;23.70;;;6.10;;
34072;SDS011;20346;52.702;16.886;2024-03-23T08:23:25;16.60;;;5.70;;
34072;SDS011;20346;52.702;16.886;2024-03-23T08:25:52;23.40;;;7.30;;
34072;SDS011;20346;52.702;16.886;2024-03-23T08:28:22;20.20;;;7.30;;
34072;SDS011;20346;52.702;16.886;2024-03-23T08:30:47;21.20;;;7.30;;
34072;SDS011;20346;52.702;16.886;2024-03-23T08:33:14;23.30;;;8.10;;
34072;SDS011;20346;52.702;16.886;2024-03-23T08:35:40;31.40;;;9.60;;
34072;SDS011;20346;52.702;16.886;2024-03-23T08:38:06;23.10;;;7.90;;
34072;SDS011;20346;52.702;16.886;2024-03-23T08:40:32;29.80;;;8.00;;
34072;SDS011;20346;52.702;16.886;2024-03-23T08:42:57;20.50;;;5.60;;
34072;SDS011;20346;52.702;16.886;2024-03-23T08:45:24;20.50;;;5.90;;
34072;SDS011;20346;52.702;16.886;2024-03-23T08:47:49;13.30;;;5.00;;
34072;SDS011;20346;52.702;16.886;2024-03-23T08:50:15;13.80;;;5.80;;
34072;SDS011;20346;52.702;16.886;2024-03-23T08:52:41;17.30;;;6.30;;
34072;SDS011;20346;52.702;16.886;2024-03-23T08:55:06;15.10;;;6.10;;
34072;SDS011;20346;52.702;16.886;2024-03-23T08:57:32;25.20;;;6.20;;
34072;SDS011;20346;52.702;16.886;2024-03-23T08:59:57;17.70;;;6.90;;
34072;SDS011;20346;52.702;16.886;2024-03-23T09:02:23;20.40;;;7.50;;
34072;SDS011;20346;52.702;16.886;2024-03-23T09:04:48;21.30;;;7.80;;
34072;SDS011;20346;52.702;16.886;2024-03-23T09:07:13;15.80;;;7.50;;
34072;SDS011;20346;52.702;16.886;2024-03-23T09:09:39;19.10;;;6.00;;
34072;SDS011;20346;52.702;16.886;2024-03-23T09:12:05;19.00;;;7.70;;
34072;SDS011;20346;52.702;16.886;2024-03-23T09:14:31;18.10;;;8.60;;
34072;SDS011;20346;52.702;16.886;2024-03-23T09:19:23;25.70;;;12.80;;
34072;SDS011;20346;52.702;16.886;2024-03-23T09:21:49;25.50;;;11.10;;
34072;SDS011;20346;52.702;16.886;2024-03-23T09:24:14;19.20;;;8.00;;
34072;SDS011;20346;52.702;16.886;2024-03-23T09:26:39;19.90;;;8.10;;
34072;SDS011;20346;52.702;16.886;2024-03-23T09:29:05;22.20;;;9.20;;
34072;SDS011;20346;52.702;16.886;2024-03-23T09:31:30;16.30;;;7.70;;
34072;SDS011;20346;52.702;16.886;2024-03-23T09:33:57;15.70;;;5.50;;
34072;SDS011;20346;52.702;16.886;2024-03-23T09:36:23;15.40;;;5.00;;
34072;SDS011;20346;52.702;16.886;2024-03-23T09:38:48;4.90;;;2.70;;
34072;SDS011;20346;52.702;16.886;2024-03-23T09:41:14;9.10;;;4.20;;
34072;SDS011;20346;52.702;16.886;2024-03-23T09:43:40;44.40;;;30.70;;
34072;SDS011;20346;52.702;16.886;2024-03-23T09:46:05;9.30;;;7.30;;
34072;SDS011;20346;52.702;16.886;2024-03-23T09:48:31;6.40;;;4.10;;
34072;SDS011;20346;52.702;16.886;2024-03-23T09:50:56;7.10;;;4.10;;
34072;SDS011;20346;52.702;16.886;2024-03-23T09:53:22;6.60;;;3.30;;
34072;SDS011;20346;52.702;16.886;2024-03-23T09:55:48;13.60;;;7.70;;
34072;SDS011;20346;52.702;16.886;2024-03-23T09:58:15;9.00;;;4.50;;
34072;SDS011;20346;52.702;16.886;2024-03-23T10:00:42;5.90;;;3.00;;
34072;SDS011;20346;52.702;16.886;2024-03-23T10:03:09;5.90;;;2.60;;
34072;SDS011;20346;52.702;16.886;2024-03-23T10:05:36;9.30;;;4.90;;
34072;SDS011;20346;52.702;16.886;2024-03-23T10:10:42;10.90;;;4.00;;
34072;SDS011;20346;52.702;16.886;2024-03-23T10:13:09;6.00;;;3.60;;
34072;SDS011;20346;52.702;16.886;2024-03-23T10:15:36;6.80;;;3.60;;
34072;SDS011;20346;52.702;16.886;2024-03-23T10:18:20;8.30;;;3.30;;
34072;SDS011;20346;52.702;16.886;2024-03-23T10:20:51;9.80;;;4.90;;
34072;SDS011;20346;52.702;16.886;2024-03-23T10:23:31;11.00;;;4.50;;
34072;SDS011;20346;52.702;16.886;2024-03-23T10:28:59;5.30;;;4.00;;
34072;SDS011;20346;52.702;16.886;2024-03-23T10:31:29;11.20;;;7.50;;
34072;SDS011;20346;52.702;16.886;2024-03-23T10:33:56;12.90;;;8.20;;
34072;SDS011;20346;52.702;16.886;2024-03-23T10:36:22;8.30;;;5.20;;
34072;SDS011;20346;52.702;16.886;2024-03-23T10:38:49;10.40;;;4.40;;
34072;SDS011;20346;52.702;16.886;2024-03-23T10:41:17;9.10;;;3.80;;
34072;SDS011;20346;52.702;16.886;2024-03-23T10:43:43;11.80;;;3.50;;
34072;SDS011;20346;52.702;16.886;2024-03-23T10:46:11;8.10;;;3.50;;
34072;SDS011;20346;52.702;16.886;2024-03-23T10:48:36;7.90;;;3.00;;
34072;SDS011;20346;52.702;16.886;2024-03-23T10:51:03;13.70;;;7.60;;
34072;SDS011;20346;52.702;16.886;2024-03-23T10:53:32;13.20;;;7.80;;
34072;SDS011;20346;52.702;16.886;2024-03-23T10:55:59;11.20;;;7.50;;
34072;SDS011;20346;52.702;16.886;2024-03-23T10:58:27;7.90;;;4.10;;
34072;SDS011;20346;52.702;16.886;2024-03-23T11:00:56;11.10;;;6.40;;
34072;SDS011;20346;52.702;16.886;2024-03-23T11:03:33;9.70;;;7.20;;
34072;SDS011;20346;52.702;16.886;2024-03-23T11:06:02;7.10;;;4.20;;
34072;SDS011;20346;52.702;16.886;2024-03-23T11:08:33;4.10;;;2.50;;
34072;SDS011;20346;52.702;16.886;2024-03-23T11:11:22;5.40;;;1.80;;
34072;SDS011;20346;52.702;16.886;2024-03-23T11:13:51;5.00;;;3.00;;
34072;SDS011;20346;52.702;16.886;2024-03-23T11:16:23;4.50;;;2.70;;
34072;SDS011;20346;52.702;16.886;2024-03-23T11:19:33;5.00;;;3.00;;
34072;SDS011;20346;52.702;16.886;2024-03-23T11:22:01;5.20;;;2.60;;
34072;SDS011;20346;52.702;16.886;2024-03-23T11:24:27;3.80;;;2.30;;
34072;SDS011;20346;52.702;16.886;2024-03-23T11:26:53;3.00;;;2.00;;
34072;SDS011;20346;52.702;16.886;2024-03-23T11:29:18;7.00;;;3.00;;
34072;SDS011;20346;52.702;16.886;2024-03-23T11:31:47;6.10;;;2.50;;
34072;SDS011;20346;52.702;16.886;2024-03-23T11:34:16;7.80;;;2.90;;
34072;SDS011;20346;52.702;16.886;2024-03-23T11:36:44;7.50;;;2.60;;
34072;SDS011;20346;52.702;16.886;2024-03-23T11:39:19;7.00;;;2.10;;
34072;SDS011;20346;52.702;16.886;2024-03-23T11:41:46;5.60;;;2.40;;
34072;SDS011;20346;52.702;16.886;2024-03-23T11:44:18;7.00;;;3.30;;
34072;SDS011;20346;52.702;16.886;2024-03-23T11:46:47;7.70;;;3.80;;
34072;SDS011;20346;52.702;16.886;2024-03-23T11:51:53;15.40;;;8.00;;
34072;SDS011;20346;52.702;16.886;2024-03-23T11:54:23;15.50;;;7.20;;
34072;SDS011;20346;52.702;16.886;2024-03-23T11:59:38;10.60;;;4.30;;
34072;SDS011;20346;52.702;16.886;2024-03-23T12:02:06;11.60;;;6.10;;
34072;SDS011;20346;52.702;16.886;2024-03-23T12:04:36;6.50;;;3.30;;
34072;SDS011;20346;52.702;16.886;2024-03-23T12:07:18;7.30;;;3.50;;
34072;SDS011;20346;52.702;16.886;2024-03-23T12:09:45;10.20;;;5.60;;
34072;SDS011;20346;52.702;16.886;2024-03-23T12:12:15;11.60;;;5.70;;
34072;SDS011;20346;52.702;16.886;2024-03-23T12:14:42;10.70;;;5.00;;
34072;SDS011;20346;52.702;16.886;2024-03-23T12:17:27;13.30;;;7.90;;
34072;SDS011;20346;52.702;16.886;2024-03-23T12:19:52;15.40;;;7.40;;
34072;SDS011;20346;52.702;16.886;2024-03-23T12:22:21;11.50;;;8.00;;
34072;SDS011;20346;52.702;16.886;2024-03-23T12:24:47;14.20;;;7.70;;
34072;SDS011;20346;52.702;16.886;2024-03-23T12:27:13;13.60;;;6.30;;
34072;SDS011;20346;52.702;16.886;2024-03-23T12:29:39;17.70;;;7.90;;
34072;SDS011;20346;52.702;16.886;2024-03-23T12:34:32;13.50;;;6.20;;
34072;SDS011;20346;52.702;16.886;2024-03-23T12:36:57;35.00;;;21.70;;
34072;SDS011;20346;52.702;16.886;2024-03-23T12:39:23;23.00;;;8.30;;
34072;SDS011;20346;52.702;16.886;2024-03-23T12:41:49;12.70;;;7.10;;
34072;SDS011;20346;52.702;16.886;2024-03-23T12:44:15;14.20;;;3.40;;
34072;SDS011;20346;52.702;16.886;2024-03-23T12:46:41;8.50;;;4.00;;
34072;SDS011;20346;52.702;16.886;2024-03-23T12:49:07;16.50;;;5.10;;
34072;SDS011;20346;52.702;16.886;2024-03-23T12:51:32;11.00;;;4.60;;
34072;SDS011;20346;52.702;16.886;2024-03-23T12:53:58;6.50;;;3.30;;
34072;SDS011;20346;52.702;16.886;2024-03-23T12:56:24;7.10;;;3.30;;
34072;SDS011;20346;52.702;16.886;2024-03-23T12:58:49;12.00;;;3.80;;
34072;SDS011;20346;52.702;16.886;2024-03-23T13:03:47;3.50;;;1.50;;
34072;SDS011;20346;52.702;16.886;2024-03-23T13:06:14;6.30;;;1.80;;
34072;SDS011;20346;52.702;16.886;2024-03-23T13:08:39;2.70;;;1.20;;
34072;SDS011;20346;52.702;16.886;2024-03-23T13:11:09;5.00;;;1.50;;
34072;SDS011;20346;52.702;16.886;2024-03-23T13:13:35;5.80;;;1.90;;
34072;SDS011;20346;52.702;16.886;2024-03-23T13:16:01;5.70;;;2.10;;
34072;SDS011;20346;52.702;16.886;2024-03-23T13:18:28;4.70;;;1.90;;
34072;SDS011;20346;52.702;16.886;2024-03-23T13:20:54;3.60;;;1.70;;
34072;SDS011;20346;52.702;16.886;2024-03-23T13:23:20;2.80;;;1.60;;
34072;SDS011;20346;52.702;16.886;2024-03-23T13:25:54;3.60;;;2.00;;
34072;SDS011;20346;52.702;16.886;2024-03-23T13:28:21;5.10;;;1.90;;
34072;SDS011;20346;52.702;16.886;2024-03-23T13:30:54;2.70;;;1.30;;
34072;SDS011;20346;52.702;16.886;2024-03-23T13:33:21;3.30;;;1.10;;
34072;SDS011;20346;52.702;16.886;2024-03-23T13:35:53;2.60;;;1.70;;
34072;SDS011;20346;52.702;16.886;2024-03-23T13:38:20;1.80;;;1.40;;
34072;SDS011;20346;52.702;16.886;2024-03-23T13:41:04;3.00;;;1.50;;
34072;SDS011;20346;52.702;16.886;2024-03-23T13:43:31;1.40;;;0.90;;
34072;SDS011;20346;52.702;16.886;2024-03-23T13:45:57;4.20;;;1.70;;
34072;SDS011;20346;52.702;16.886;2024-03-23T13:48:25;5.90;;;1.30;;
34072;SDS011;20346;52.702;16.886;2024-03-23T13:51:01;2.20;;;1.00;;
34072;SDS011;20346;52.702;16.886;2024-03-23T13:53:28;1.90;;;0.80;;
34072;SDS011;20346;52.702;16.886;2024-03-23T13:55:53;2.60;;;0.90;;
34072;SDS011;20346;52.702;16.886;2024-03-23T13:58:19;3.50;;;0.80;;
34072;SDS011;20346;52.702;16.886;2024-03-23T14:00:45;2.40;;;1.10;;
34072;SDS011;20346;52.702;16.886;2024-03-23T14:03:11;4.10;;;1.10;;
34072;SDS011;20346;52.702;16.886;2024-03-23T14:05:37;2.00;;;1.30;;
34072;SDS011;20346;52.702;16.886;2024-03-23T14:08:06;1.10;;;0.90;;
34072;SDS011;20346;52.702;16.886;2024-03-23T14:10:32;2.20;;;1.20;;
34072;SDS011;20346;52.702;16.886;2024-03-23T14:12:58;1.20;;;0.90;;
34072;SDS011;20346;52.702;16.886;2024-03-23T14:15:26;1.80;;;1.10;;
34072;SDS011;20346;52.702;16.886;2024-03-23T14:20:17;1.30;;;0.90;;
34072;SDS011;20346;52.702;16.886;2024-03-23T14:22:42;4.50;;;1.60;;
34072;SDS011;20346;52.702;16.886;2024-03-23T14:25:11;2.40;;;1.60;;
34072;SDS011;20346;52.702;16.886;2024-03-23T14:27:36;1.70;;;1.30;;
34072;SDS011;20346;52.702;16.886;2024-03-23T14:30:02;5.30;;;1.50;;
34072;SDS011;20346;52.702;16.886;2024-03-23T14:32:33;5.50;;;1.60;;
34072;SDS011;20346;52.702;16.886;2024-03-23T14:35:01;2.90;;;1.40;;
34072;SDS011;20346;52.702;16.886;2024-03-23T14:37:27;3.10;;;1.70;;
34072;SDS011;20346;52.702;16.886;2024-03-23T14:39:54;3.20;;;1.90;;
34072;SDS011;20346;52.702;16.886;2024-03-23T14:42:21;2.40;;;2.20;;
34072;SDS011;20346;52.702;16.886;2024-03-23T14:44:47;4.80;;;1.80;;
34072;SDS011;20346;52.702;16.886;2024-03-23T14:47:12;3.40;;;2.60;;
34072;SDS011;20346;52.702;16.886;2024-03-23T14:49:38;4.00;;;2.00;;
34072;SDS011;20346;52.702;16.886;2024-03-23T14:52:03;8.20;;;3.30;;
34072;SDS011;20346;52.702;16.886;2024-03-23T14:54:29;3.00;;;1.70;;
34072;SDS011;20346;52.702;16.886;2024-03-23T14:56:54;2.30;;;2.00;;
34072;SDS011;20346;52.702;16.886;2024-03-23T14:59:21;3.30;;;1.80;;
34072;SDS011;20346;52.702;16.886;2024-03-23T15:01:47;1.80;;;1.40;;
34072;SDS011;20346;52.702;16.886;2024-03-23T15:04:12;1.70;;;1.00;;
34072;SDS011;20346;52.702;16.886;2024-03-23T15:06:37;2.00;;;1.20;;
34072;SDS011;20346;52.702;16.886;2024-03-23T15:09:03;1.60;;;0.90;;
34072;SDS011;20346;52.702;16.886;2024-03-23T15:11:32;3.20;;;1.40;;
34072;SDS011;20346;52.702;16.886;2024-03-23T15:13:58;1.20;;;1.00;;
34072;SDS011;20346;52.702;16.886;2024-03-23T15:16:23;0.90;;;0.70;;
34072;SDS011;20346;52.702;16.886;2024-03-23T15:18:49;0.90;;;0.90;;
34072;SDS011;20346;52.702;16.886;2024-03-23T15:21:14;1.20;;;0.70;;
34072;SDS011;20346;52.702;16.886;2024-03-23T15:23:44;1.30;;;0.90;;
34072;SDS011;20346;52.702;16.886;2024-03-23T15:26:10;2.30;;;1.50;;
34072;SDS011;20346;52.702;16.886;2024-03-23T15:28:35;2.10;;;1.30;;
34072;SDS011;20346;52.702;16.886;2024-03-23T15:31:19;2.20;;;1.10;;
34072;SDS011;20346;52.702;16.886;2024-03-23T15:33:45;2.60;;;1.30;;
34072;SDS011;20346;52.702;16.886;2024-03-23T15:36:10;3.20;;;2.00;;
34072;SDS011;20346;52.702;16.886;2024-03-23T15:38:36;2.40;;;1.40;;
34072;SDS011;20346;52.702;16.886;2024-03-23T15:41:03;2.00;;;1.30;;
34072;SDS011;20346;52.702;16.886;2024-03-23T15:43:29;2.30;;;1.70;;